createdAt,value
2023-02-03T00:01:53.735Z,9.86
2023-02-03T00:04:29.900Z,9.72
2023-02-03T00:07:04.216Z,9.81
2023-02-03T00:09:33.196Z,9.92
2023-02-03T00:12:06.160Z,9.87
2023-02-03T00:14:42.737Z,9.68
2023-02-03T00:17:21.621Z,9.24
2023-02-03T00:19:48.436Z,9.62
2023-02-03T00:22:14.936Z,9.50
2023-02-03T00:24:46.956Z,9.32
2023-02-03T00:27:16.784Z,9.57
2023-02-03T00:29:45.066Z,9.14
2023-02-03T00:32:17.932Z,9.59
2023-02-03T00:34:47.655Z,9.34
2023-02-03T00:37:16.461Z,9.23
2023-02-03T00:39:46.075Z,9.14
2023-02-03T00:42:19.975Z,9.14
2023-02-03T00:44:46.704Z,8.48
2023-02-03T00:47:18.140Z,8.67
2023-02-03T00:49:47.163Z,8.68
2023-02-03T00:52:21.383Z,8.43
2023-02-03T00:54:48.332Z,9.33
2023-02-03T00:57:19.587Z,9.05
2023-02-03T00:59:46.304Z,9.56
2023-02-03T01:02:42.088Z,9.61
2023-02-03T01:05:08.898Z,9.79
2023-02-03T01:07:37.054Z,9.85
2023-02-03T01:10:10.403Z,9.68
2023-02-03T01:12:37.246Z,9.65
2023-02-03T01:15:04.434Z,9.81
2023-02-03T01:17:38.735Z,9.60
2023-02-03T01:20:17.466Z,9.68
2023-02-03T01:22:48.007Z,9.17
2023-02-03T01:25:14.468Z,9.45
2023-02-03T01:27:46.966Z,9.53
2023-02-03T01:30:16.872Z,9.70
2023-02-03T01:32:50.671Z,9.79
2023-02-03T01:35:22.082Z,9.49
2023-02-03T01:37:48.670Z,9.48
2023-02-03T01:40:15.232Z,9.46
2023-02-03T01:42:41.694Z,9.17
2023-02-03T01:45:13.554Z,9.18
2023-02-03T01:47:47.856Z,9.10
2023-02-03T01:50:29.190Z,9.12
2023-02-03T01:53:05.388Z,9.03
2023-02-03T01:55:39.941Z,8.53
2023-02-03T01:58:20.249Z,8.85
2023-02-03T02:01:05.619Z,8.76
2023-02-03T02:03:43.165Z,8.38
2023-02-03T02:06:12.819Z,7.45
2023-02-03T02:08:42.318Z,8.50
2023-02-03T02:11:09.277Z,7.80
2023-02-03T02:13:36.794Z,7.70
2023-02-03T02:16:15.344Z,8.40
2023-02-03T02:18:47.855Z,8.26
2023-02-03T02:21:43.106Z,8.25
2023-02-03T02:24:34.644Z,7.95
2023-02-03T02:27:15.253Z,8.33
2023-02-03T02:30:21.854Z,8.24
2023-02-03T02:32:53.632Z,8.26
2023-02-03T02:35:42.217Z,8.23
2023-02-03T02:38:21.424Z,8.18
2023-02-03T02:40:56.477Z,8.17
2023-02-03T02:43:26.809Z,7.33
2023-02-03T02:46:06.871Z,7.04
2023-02-03T02:48:44.680Z,7.05
2023-02-03T02:51:14.212Z,8.03
2023-02-03T02:53:46.881Z,7.04
2023-02-03T02:56:20.795Z,7.56
2023-02-03T02:58:51.917Z,7.62
2023-02-03T03:01:19.453Z,7.90
2023-02-03T03:03:47.165Z,7.90
2023-02-03T03:06:27.586Z,7.66
2023-02-03T03:09:03.910Z,7.70
2023-02-03T03:11:36.557Z,7.52
2023-02-03T03:14:05.388Z,7.64
2023-02-03T03:16:39.801Z,7.51
2023-02-03T03:19:20.290Z,7.40
2023-02-03T03:21:57.610Z,6.78
2023-02-03T03:24:42.101Z,7.45
2023-02-03T03:27:22.988Z,7.69
2023-02-03T03:30:00.770Z,7.66
2023-02-03T03:32:33.050Z,6.43
2023-02-03T03:35:04.751Z,7.72
2023-02-03T03:38:15.231Z,7.52
2023-02-03T03:40:49.803Z,7.19
2023-02-03T03:43:22.203Z,7.23
2023-02-03T03:46:01.743Z,7.37
2023-02-03T03:48:48.573Z,7.33
2023-02-03T03:51:39.617Z,7.33
2023-02-03T03:54:10.260Z,6.98
2023-02-03T03:56:53.853Z,7.06
2023-02-03T03:59:24.886Z,7.02
2023-02-03T04:01:55.481Z,6.87
2023-02-03T04:04:26.259Z,7.32
2023-02-03T04:07:13.524Z,7.01
2023-02-03T04:09:42.974Z,6.79
2023-02-03T04:12:29.655Z,7.13
2023-02-03T04:14:59.866Z,6.30
2023-02-03T04:17:29.879Z,7.06
2023-02-03T04:19:56.657Z,6.22
2023-02-03T04:22:23.164Z,6.90
2023-02-03T04:24:52.676Z,6.35
2023-02-03T04:27:22.412Z,6.96
2023-02-03T04:29:52.057Z,6.00
2023-02-03T04:32:19.092Z,5.38
2023-02-03T04:34:46.385Z,6.76
2023-02-03T04:37:22.341Z,6.86
2023-02-03T04:39:57.694Z,6.61
2023-02-03T04:42:24.924Z,6.78
2023-02-03T04:44:54.245Z,7.09
2023-02-03T04:47:21.989Z,6.68
2023-02-03T04:49:56.579Z,6.53
2023-02-03T04:52:34.691Z,5.93
2023-02-03T04:55:18.147Z,6.25
2023-02-03T04:57:51.967Z,5.59
2023-02-03T05:00:18.900Z,5.79
2023-02-03T05:02:49.198Z,5.88
2023-02-03T05:05:17.176Z,6.09
2023-02-03T05:07:53.527Z,5.66
2023-02-03T05:10:22.933Z,6.02
2023-02-03T05:12:49.945Z,5.72
2023-02-03T05:15:16.769Z,5.88
2023-02-03T05:17:43.343Z,6.01
2023-02-03T05:20:11.103Z,5.81
2023-02-03T05:22:41.319Z,6.15
2023-02-03T05:25:17.471Z,6.15
2023-02-03T05:27:44.658Z,6.12
2023-02-03T05:30:11.941Z,6.12
2023-02-03T05:35:25.840Z,6.02
2023-02-03T05:38:00.220Z,5.84
2023-02-03T05:40:46.585Z,5.85
2023-02-03T05:43:23.200Z,6.22
2023-02-03T05:45:52.586Z,6.14
2023-02-03T05:48:20.668Z,5.91
2023-02-03T05:50:52.210Z,6.22
2023-02-03T05:53:19.743Z,6.15
2023-02-03T05:55:51.023Z,6.34
2023-02-03T05:58:26.950Z,5.50
2023-02-03T06:00:58.909Z,6.04
2023-02-03T06:03:31.933Z,5.63
2023-02-03T06:06:00.474Z,4.84
2023-02-03T06:08:28.749Z,6.23
2023-02-03T06:11:00.706Z,4.84
2023-02-03T06:13:30.661Z,6.23
2023-02-03T06:18:53.515Z,5.59
2023-02-03T06:21:25.878Z,4.99
2023-02-03T06:23:52.715Z,6.22
2023-02-03T06:26:21.474Z,5.00
2023-02-03T06:28:52.035Z,6.27
2023-02-03T06:31:19.780Z,5.91
2023-02-03T06:33:53.725Z,6.02
2023-02-03T06:36:45.698Z,5.59
2023-02-03T06:43:08.107Z,5.43
2023-02-03T06:45:36.928Z,5.64
2023-02-03T06:48:14.386Z,6.02
2023-02-03T06:50:48.666Z,5.83
2023-02-03T06:53:15.549Z,5.65
2023-02-03T06:55:42.314Z,5.96
2023-02-03T06:58:12.400Z,5.96
2023-02-03T07:00:39.019Z,5.96
2023-02-03T07:03:07.347Z,5.73
2023-02-03T07:05:40.827Z,5.81
2023-02-03T07:08:16.744Z,6.02
2023-02-03T07:10:43.375Z,5.71
2023-02-03T07:13:12.802Z,5.61
2023-02-03T07:15:42.750Z,5.72
2023-02-03T07:18:14.981Z,5.55
2023-02-03T07:20:44.571Z,5.63
2023-02-03T07:23:14.234Z,5.27
2023-02-03T07:25:43.902Z,5.49
2023-02-03T07:28:14.301Z,5.37
2023-02-03T07:30:41.023Z,5.39
2023-02-03T07:33:08.065Z,5.53
2023-02-03T07:38:22.205Z,5.39
2023-02-03T07:41:01.015Z,5.77
2023-02-03T07:43:38.391Z,5.82
2023-02-03T07:46:05.189Z,5.45
2023-02-03T07:48:38.116Z,5.76
2023-02-03T07:51:05.067Z,5.82
2023-02-03T07:53:35.156Z,6.03
2023-02-03T07:56:04.722Z,5.20
2023-02-03T07:58:35.953Z,6.07
2023-02-03T08:01:09.429Z,5.69
2023-02-03T08:03:39.654Z,6.28
2023-02-03T08:08:50.656Z,6.30
2023-02-03T08:11:22.012Z,6.39
2023-02-03T08:13:51.370Z,6.27
2023-02-03T08:16:33.078Z,6.14
2023-02-03T08:19:02.748Z,6.21
2023-02-03T08:21:29.439Z,6.37
2023-02-03T08:24:00.246Z,5.91
2023-02-03T08:26:26.884Z,5.90
2023-02-03T08:28:58.607Z,6.00
2023-02-03T08:31:25.436Z,6.30
2023-02-03T08:33:52.230Z,6.32
2023-02-03T08:36:19.096Z,6.10
2023-02-03T08:38:49.562Z,5.88
2023-02-03T08:41:18.221Z,5.95
2023-02-03T08:43:45.738Z,6.33
2023-02-03T08:46:18.339Z,6.52
2023-02-03T08:48:53.360Z,6.41
2023-02-03T08:54:06.547Z,6.53
2023-02-03T08:56:48.080Z,6.67
2023-02-03T08:59:17.230Z,6.61
2023-02-03T09:04:38.162Z,6.71
2023-02-03T09:07:04.919Z,6.73
2023-02-03T09:09:32.283Z,6.68
2023-02-03T09:12:05.792Z,6.79
2023-02-03T09:14:33.660Z,7.01
2023-02-03T09:17:14.828Z,6.24
2023-02-03T09:19:42.314Z,6.97
2023-02-03T09:22:11.554Z,7.04
2023-02-03T09:24:48.176Z,6.78
2023-02-03T09:27:15.099Z,7.12
2023-02-03T09:29:47.001Z,7.16
2023-02-03T09:32:16.784Z,6.85
2023-02-03T09:34:47.200Z,7.14
2023-02-03T09:37:37.098Z,7.14
2023-02-03T09:40:04.174Z,7.53
2023-02-03T09:43:20.510Z,7.35
2023-02-03T09:46:02.919Z,7.71
2023-02-03T09:49:24.913Z,7.51
2023-02-03T09:52:13.948Z,7.55
2023-02-03T09:55:11.591Z,8.29
2023-02-03T09:57:46.739Z,8.35
2023-02-03T10:00:38.174Z,8.61
2023-02-03T10:03:16.150Z,8.18
2023-02-03T10:06:01.075Z,8.63
2023-02-03T10:09:18.328Z,8.23
2023-02-03T10:12:14.661Z,8.65
2023-02-03T10:15:03.157Z,8.83
2023-02-03T10:18:09.715Z,9.15
2023-02-03T10:21:01.013Z,9.26
2023-02-03T10:23:42.615Z,9.26
2023-02-03T10:26:17.474Z,9.32
2023-02-03T10:29:34.257Z,9.43
2023-02-03T10:32:24.483Z,9.44
2023-02-03T10:35:16.955Z,9.55
2023-02-03T10:37:54.206Z,9.65
2023-02-03T10:40:37.700Z,9.40
2023-02-03T10:43:27.214Z,9.91
2023-02-03T10:45:54.581Z,8.78
2023-02-03T10:48:27.998Z,9.72
2023-02-03T10:51:07.527Z,9.24
2023-02-03T10:53:37.441Z,10.05
2023-02-03T10:56:19.794Z,10.09
2023-02-03T10:58:59.438Z,10.04
2023-02-03T11:01:48.105Z,10.30
2023-02-03T11:04:38.150Z,9.87
2023-02-03T11:07:36.061Z,10.54
2023-02-03T11:10:27.463Z,10.53
2023-02-03T11:13:24.520Z,10.74
2023-02-03T11:16:01.175Z,10.88
2023-02-03T11:18:52.697Z,9.70
2023-02-03T11:21:30.552Z,10.92
2023-02-03T11:24:21.474Z,10.68
2023-02-03T11:27:02.637Z,10.03
2023-02-03T11:29:32.153Z,10.43
2023-02-03T11:32:05.765Z,10.43
2023-02-03T11:37:42.234Z,10.38
2023-02-03T11:40:08.968Z,10.41
2023-02-03T11:42:38.012Z,10.08
2023-02-03T11:45:28.146Z,10.36
2023-02-03T11:48:05.940Z,10.37
2023-02-03T11:50:41.600Z,10.26
2023-02-03T11:53:08.222Z,10.18
2023-02-03T11:56:15.414Z,10.26
2023-02-03T11:59:10.246Z,10.22
2023-02-03T12:02:09.933Z,10.17
2023-02-03T12:05:13.880Z,10.11
2023-02-03T12:08:18.258Z,10.16
2023-02-03T12:11:14.185Z,10.09
2023-02-03T12:14:04.723Z,10.04
2023-02-03T12:16:38.425Z,9.96
2023-02-03T12:19:41.702Z,9.94
2023-02-03T12:22:36.273Z,9.91
2023-02-03T12:25:40.657Z,9.91
2023-02-03T12:28:23.737Z,9.99
2023-02-03T12:31:10.435Z,9.93
2023-02-03T12:33:59.618Z,9.81
2023-02-03T12:36:51.328Z,9.80
2023-02-03T12:39:28.527Z,9.79
2023-02-03T12:42:37.972Z,9.95
2023-02-03T12:45:41.115Z,9.66
2023-02-03T12:48:24.109Z,10.03
2023-02-03T12:51:01.471Z,10.05
2023-02-03T12:53:36.574Z,10.07
2023-02-03T12:56:05.299Z,10.02
2023-02-03T12:58:43.251Z,10.19
2023-02-03T13:01:29.727Z,10.17
2023-02-03T13:04:08.821Z,10.27
2023-02-03T13:07:21.819Z,9.51
2023-02-03T13:10:01.206Z,10.25
2023-02-03T13:12:51.712Z,9.58
2023-02-03T13:15:54.426Z,10.55
2023-02-03T13:18:21.710Z,10.58
2023-02-03T13:23:43.158Z,10.69
2023-02-03T13:26:28.078Z,10.82
2023-02-03T13:29:07.042Z,10.84
2023-02-03T13:31:46.259Z,10.80
2023-02-03T13:34:21.118Z,10.45
2023-02-03T13:37:36.317Z,10.74
2023-02-03T13:40:21.147Z,11.07
2023-02-03T13:43:04.998Z,11.01
2023-02-03T13:45:49.650Z,11.01
2023-02-03T13:48:33.814Z,11.04
2023-02-03T13:51:21.900Z,11.22
2023-02-03T13:53:51.038Z,11.31
2023-02-03T13:56:26.285Z,11.45
2023-02-03T13:59:22.846Z,11.10
2023-02-03T14:01:49.762Z,11.58
2023-02-03T14:04:31.540Z,11.53
2023-02-03T14:07:03.447Z,11.36
2023-02-03T14:09:36.101Z,11.57
2023-02-03T14:12:15.116Z,10.58
2023-02-03T14:14:45.818Z,11.04
2023-02-03T14:17:47.158Z,11.59
2023-02-03T14:20:39.146Z,11.51
2023-02-03T14:23:05.697Z,11.18
2023-02-03T14:25:45.816Z,11.53
2023-02-03T14:28:23.078Z,11.57
2023-02-03T14:31:07.070Z,11.55
2023-02-03T14:33:49.332Z,11.45
2023-02-03T14:36:42.255Z,11.48
2023-02-03T14:39:55.284Z,11.50
2023-02-03T14:42:29.629Z,11.43
2023-02-03T14:44:56.259Z,11.53
2023-02-03T14:47:44.704Z,11.51
2023-02-03T14:50:34.173Z,11.48
2023-02-03T14:53:28.304Z,11.46
2023-02-03T14:56:13.929Z,11.47
2023-02-03T15:01:36.592Z,10.91
2023-02-03T15:04:12.560Z,11.54
2023-02-03T15:06:48.549Z,11.16
2023-02-03T15:09:48.465Z,11.48
2023-02-03T15:12:19.726Z,11.51
2023-02-03T15:14:49.380Z,11.26
2023-02-03T15:17:28.193Z,11.41
2023-02-03T15:19:56.343Z,11.43
2023-02-03T15:22:29.124Z,11.19
2023-02-03T15:24:59.543Z,11.20
2023-02-03T15:27:36.349Z,11.28
2023-02-03T15:30:28.997Z,11.26
2023-02-03T15:33:08.171Z,10.65
2023-02-03T15:35:37.850Z,11.19
2023-02-03T15:38:32.248Z,10.82
2023-02-03T15:43:56.669Z,10.93
2023-02-03T15:46:28.506Z,10.79
2023-02-03T15:49:17.971Z,11.10
2023-02-03T15:51:59.619Z,11.08
2023-02-03T15:54:43.327Z,10.51
2023-02-03T15:57:23.325Z,10.28
2023-02-03T16:00:57.630Z,10.40
2023-02-03T16:03:41.375Z,10.96
2023-02-03T16:06:25.424Z,10.50
2023-02-03T16:08:59.917Z,10.86
2023-02-03T16:11:37.133Z,10.44
2023-02-03T16:14:14.261Z,10.56
2023-02-03T16:17:04.258Z,10.74
2023-02-03T16:19:38.651Z,10.05
2023-02-03T16:22:25.614Z,10.72
2023-02-03T16:24:57.290Z,10.66
2023-02-03T16:27:30.547Z,10.29
2023-02-03T16:30:25.250Z,10.59
2023-02-03T16:33:35.846Z,10.58
2023-02-03T16:36:49.222Z,10.54
2023-02-03T16:39:43.240Z,10.46
2023-02-03T16:42:42.916Z,10.30
2023-02-03T16:45:41.268Z,10.41
2023-02-03T16:48:38.653Z,10.27
2023-02-03T16:51:37.902Z,10.34
2023-02-03T16:54:06.351Z,10.04
2023-02-03T16:56:35.473Z,10.05
2023-02-03T16:59:10.175Z,10.18
2023-02-03T17:02:05.225Z,10.28
2023-02-03T17:04:32.034Z,10.12
2023-02-03T17:06:58.652Z,10.00
2023-02-03T17:09:25.335Z,10.09
2023-02-03T17:12:09.609Z,10.14
2023-02-03T17:14:36.219Z,10.04
2023-02-03T17:20:01.635Z,9.83
2023-02-03T17:22:30.655Z,10.08
2023-02-03T17:25:04.697Z,10.03
2023-02-03T17:27:31.462Z,9.96
2023-02-03T17:29:58.197Z,9.89
2023-02-03T17:32:25.355Z,8.57
2023-02-03T17:34:58.949Z,9.68
2023-02-03T17:37:25.684Z,9.62
2023-02-03T17:53:50.926Z,9.46
2023-02-03T17:56:36.016Z,8.93
2023-02-03T17:59:05.053Z,9.21
2023-02-03T18:01:33.403Z,9.07
2023-02-03T18:04:24.157Z,9.34
2023-02-03T18:06:50.848Z,8.96
2023-02-03T18:09:23.393Z,9.28
2023-02-03T18:12:14.558Z,9.35
2023-02-03T18:14:41.268Z,9.30
2023-02-03T18:17:14.711Z,8.94
2023-02-03T18:19:46.629Z,9.18
2023-02-03T18:22:15.830Z,8.62
2023-02-03T18:24:45.047Z,9.13
2023-02-03T18:27:22.734Z,8.85
2023-02-03T18:29:52.277Z,7.90
2023-02-03T18:32:20.123Z,8.47
2023-02-03T18:34:47.392Z,7.45
2023-02-03T18:37:14.369Z,8.58
2023-02-03T18:39:41.239Z,8.99
2023-02-03T18:42:08.587Z,9.18
2023-02-03T18:44:35.888Z,9.16
2023-02-03T18:47:09.001Z,8.81
2023-02-03T18:49:37.178Z,8.96
2023-02-03T18:52:08.046Z,8.33
2023-02-03T18:54:42.794Z,8.64
2023-02-03T18:57:13.097Z,9.17
2023-02-03T18:59:40.071Z,9.10
2023-02-03T19:02:07.436Z,9.09
2023-02-03T19:04:34.351Z,9.15
2023-02-03T19:07:01.132Z,8.93
2023-02-03T19:09:30.639Z,8.85
2023-02-03T19:11:58.970Z,8.49
2023-02-03T19:14:26.313Z,9.11
2023-02-03T19:16:53.243Z,8.67
2023-02-03T19:19:28.599Z,9.19
2023-02-03T19:21:58.850Z,9.33
2023-02-03T19:24:31.338Z,9.34
2023-02-03T19:26:58.097Z,8.28
2023-02-03T19:29:24.946Z,9.31
2023-02-03T19:31:51.897Z,9.17
2023-02-03T19:34:18.999Z,9.32
2023-02-03T19:36:47.256Z,9.34
2023-02-03T19:39:14.633Z,9.20
2023-02-03T19:41:41.831Z,9.38
2023-02-03T19:44:08.632Z,8.84
2023-02-03T19:46:37.540Z,9.34
2023-02-03T19:49:11.104Z,8.96
2023-02-03T19:51:38.304Z,8.69
2023-02-03T19:54:07.574Z,8.65
2023-02-03T19:56:39.763Z,8.84
2023-02-03T19:59:07.201Z,8.64
2023-02-03T20:01:34.652Z,8.83
2023-02-03T20:04:01.613Z,8.72
2023-02-03T20:06:35.693Z,8.96
2023-02-03T20:09:04.892Z,9.02
2023-02-03T20:11:35.239Z,9.09
2023-02-03T20:14:05.578Z,9.26
2023-02-03T20:16:32.427Z,8.46
2023-02-03T20:19:02.588Z,9.30
2023-02-03T20:21:30.636Z,8.71
2023-02-03T20:23:58.715Z,9.16
2023-02-03T20:26:28.501Z,9.29
2023-02-03T20:29:02.327Z,9.61
2023-02-03T20:31:32.100Z,9.68
2023-02-03T20:34:00.799Z,9.76
2023-02-03T20:36:27.958Z,8.91
2023-02-03T20:39:01.148Z,9.42
2023-02-03T20:41:33.854Z,9.80
2023-02-03T20:44:10.956Z,9.17
2023-02-03T20:46:39.722Z,9.26
2023-02-03T20:49:20.085Z,9.36
2023-02-03T20:51:51.033Z,9.37
2023-02-03T20:54:24.709Z,9.90
2023-02-03T20:56:51.629Z,9.54
2023-02-03T20:59:19.760Z,9.18
2023-02-03T21:01:49.708Z,10.32
2023-02-03T21:04:42.743Z,9.65
2023-02-03T21:07:25.692Z,9.77
2023-02-03T21:10:05.582Z,9.29
2023-02-03T21:12:33.773Z,10.53
2023-02-03T21:15:04.174Z,10.38
2023-02-03T21:17:44.684Z,10.49
2023-02-03T21:20:32.803Z,9.56
2023-02-03T21:23:01.842Z,10.40
2023-02-03T21:25:32.212Z,10.63
2023-02-03T21:28:02.367Z,10.31
2023-02-03T21:30:45.328Z,10.47
2023-02-03T21:33:51.716Z,10.75
2023-02-03T21:36:40.497Z,10.40
2023-02-03T21:39:28.867Z,10.35
2023-02-03T21:41:57.327Z,9.80
2023-02-03T21:44:34.306Z,10.37
2023-02-03T21:47:28.398Z,10.32
2023-02-03T21:49:56.426Z,10.29
2023-02-03T21:52:29.165Z,10.09
2023-02-03T21:55:00.428Z,9.52
2023-02-03T21:57:27.371Z,9.77
2023-02-03T21:59:54.111Z,9.87
2023-02-03T22:02:42.764Z,10.06
2023-02-03T22:05:16.954Z,10.06
2023-02-03T22:07:50.684Z,9.92
2023-02-03T22:10:21.957Z,9.82
2023-02-03T22:12:53.911Z,10.01
2023-02-03T22:15:24.005Z,10.22
2023-02-03T22:17:51.112Z,10.13
2023-02-03T22:20:18.105Z,10.04
2023-02-03T22:22:50.772Z,9.98
2023-02-03T22:25:17.556Z,9.72
2023-02-03T22:27:44.273Z,9.90
2023-02-03T22:30:14.850Z,9.88
2023-02-03T22:32:44.998Z,9.90
2023-02-03T22:35:12.827Z,9.82
2023-02-03T22:37:39.857Z,9.83
2023-02-03T22:40:07.388Z,9.59
2023-02-03T22:42:37.274Z,9.52
2023-02-03T22:45:15.084Z,9.49
2023-02-03T22:47:41.939Z,8.79
2023-02-03T22:50:12.066Z,9.50
2023-02-03T22:52:44.108Z,9.41
2023-02-03T22:55:15.287Z,9.38
2023-02-03T22:57:41.950Z,9.12
2023-02-03T23:00:11.068Z,9.38
2023-02-03T23:02:41.166Z,9.39
2023-02-03T23:05:09.763Z,9.36
2023-02-03T23:07:39.736Z,9.08
2023-02-03T23:10:17.529Z,9.08
2023-02-03T23:12:44.586Z,9.31
2023-02-03T23:15:17.045Z,9.19
2023-02-03T23:17:46.994Z,8.01
2023-02-03T23:20:18.055Z,8.64
2023-02-03T23:22:51.096Z,8.78
2023-02-03T23:25:17.987Z,8.84
2023-02-03T23:27:44.853Z,7.83
2023-02-03T23:30:14.886Z,8.80
2023-02-03T23:32:44.703Z,8.67
2023-02-03T23:35:35.922Z,8.58
2023-02-03T23:38:10.513Z,8.45
2023-02-03T23:40:37.217Z,8.53
2023-02-03T23:43:03.956Z,8.33
2023-02-03T23:45:34.318Z,8.45
2023-02-03T23:48:09.677Z,8.46
2023-02-03T23:50:36.847Z,7.19
2023-02-03T23:53:06.989Z,8.31
2023-02-03T23:55:33.628Z,8.30
2023-02-03T23:58:08.680Z,8.15
